sensor_id;sensor_type;location;lat;lon;timestamp;pressure;altitude;pressure_sealevel;temperature;humidity
72548;BME280;60570;50.848;6.776;2023-03-25T00:00:02;99410.50;;;12.54;65.11
72548;BME280;60570;50.848;6.776;2023-03-25T00:01:11;99411.66;;;12.53;65.06
72548;BME280;60570;50.848;6.776;2023-03-25T00:02:15;99408.09;;;12.53;64.97
72548;BME280;60570;50.848;6.776;2023-03-25T00:03:16;99405.66;;;12.51;65.09
72548;BME280;60570;50.848;6.776;2023-03-25T00:04:17;99414.44;;;12.53;65.23
72548;BME280;60570;50.848;6.776;2023-03-25T00:05:19;99414.84;;;12.52;65.20
72548;BME280;60570;50.848;6.776;2023-03-25T00:06:21;99419.59;;;12.51;64.95
72548;BME280;60570;50.848;6.776;2023-03-25T00:07:22;99412.84;;;12.52;65.09
72548;BME280;60570;50.848;6.776;2023-03-25T00:08:24;99420.78;;;12.50;65.08
72548;BME280;60570;50.848;6.776;2023-03-25T00:09:26;99419.97;;;12.50;64.81
72548;BME280;60570;50.848;6.776;2023-03-25T00:10:28;99419.97;;;12.50;65.08
72548;BME280;60570;50.848;6.776;2023-03-25T00:11:28;99421.16;;;12.49;65.20
72548;BME280;60570;50.848;6.776;2023-03-25T00:12:30;99419.16;;;12.49;64.90
72548;BME280;60570;50.848;6.776;2023-03-25T00:13:31;99426.34;;;12.50;64.79
72548;BME280;60570;50.848;6.776;2023-03-25T00:14:34;99427.53;;;12.49;65.07
72548;BME280;60570;50.848;6.776;2023-03-25T00:15:35;99419.53;;;12.48;64.82
72548;BME280;60570;50.848;6.776;2023-03-25T00:16:37;99422.31;;;12.48;65.09
72548;BME280;60570;50.848;6.776;2023-03-25T00:17:39;99423.13;;;12.48;64.94
72548;BME280;60570;50.848;6.776;2023-03-25T00:18:41;99419.53;;;12.48;64.87
72548;BME280;60570;50.848;6.776;2023-03-25T00:19:42;99412.38;;;12.47;64.81
72548;BME280;60570;50.848;6.776;2023-03-25T00:20:44;99415.16;;;12.47;64.78
72548;BME280;60570;50.848;6.776;2023-03-25T00:21:48;99417.94;;;12.47;64.87
72548;BME280;60570;50.848;6.776;2023-03-25T00:22:51;99415.94;;;12.47;64.70
72548;BME280;60570;50.848;6.776;2023-03-25T00:23:52;99413.16;;;12.47;65.00
72548;BME280;60570;50.848;6.776;2023-03-25T00:24:53;99415.94;;;12.47;65.10
72548;BME280;60570;50.848;6.776;2023-03-25T00:25:54;99411.19;;;12.48;64.92
72548;BME280;60570;50.848;6.776;2023-03-25T00:26:59;99415.50;;;12.45;64.75
72548;BME280;60570;50.848;6.776;2023-03-25T00:28:00;99417.53;;;12.45;64.88
72548;BME280;60570;50.848;6.776;2023-03-25T00:29:02;99416.31;;;12.46;64.62
72548;BME280;60570;50.848;6.776;2023-03-25T00:30:05;99413.91;;;12.44;64.86
72548;BME280;60570;50.848;6.776;2023-03-25T00:31:11;99406.38;;;12.45;64.89
72548;BME280;60570;50.848;6.776;2023-03-25T00:32:13;99423.09;;;12.45;64.62
72548;BME280;60570;50.848;6.776;2023-03-25T00:33:15;99413.13;;;12.44;64.71
72548;BME280;60570;50.848;6.776;2023-03-25T00:34:17;99422.28;;;12.44;64.53
72548;BME280;60570;50.848;6.776;2023-03-25T00:35:20;99418.69;;;12.44;64.38
72548;BME280;60570;50.848;6.776;2023-03-25T00:36:21;99411.53;;;12.43;64.62
72548;BME280;60570;50.848;6.776;2023-03-25T00:37:23;99412.34;;;12.43;64.40
72548;BME280;60570;50.848;6.776;2023-03-25T00:38:25;99415.13;;;12.43;64.51
72548;BME280;60570;50.848;6.776;2023-03-25T00:39:32;99413.50;;;12.42;64.85
72548;BME280;60570;50.848;6.776;2023-03-25T00:40:33;99417.09;;;12.43;64.80
72548;BME280;60570;50.848;6.776;2023-03-25T00:41:35;99408.72;;;12.43;64.65
72548;BME280;60570;50.848;6.776;2023-03-25T00:42:36;99403.53;;;12.41;64.29
72548;BME280;60570;50.848;6.776;2023-03-25T00:43:44;99408.31;;;12.41;64.72
72548;BME280;60570;50.848;6.776;2023-03-25T00:44:49;99409.47;;;12.40;64.66
72548;BME280;60570;50.848;6.776;2023-03-25T00:45:55;99418.63;;;12.40;64.50
72548;BME280;60570;50.848;6.776;2023-03-25T00:46:56;99407.50;;;12.40;64.81
72548;BME280;60570;50.848;6.776;2023-03-25T00:47:58;99410.28;;;12.40;64.58
72548;BME280;60570;50.848;6.776;2023-03-25T00:48:59;99400.34;;;12.39;64.47
72548;BME280;60570;50.848;6.776;2023-03-25T00:50:01;99407.88;;;12.39;64.68
72548;BME280;60570;50.848;6.776;2023-03-25T00:51:03;99407.06;;;12.38;64.63
72548;BME280;60570;50.848;6.776;2023-03-25T00:52:07;99416.22;;;12.39;64.75
72548;BME280;60570;50.848;6.776;2023-03-25T00:53:08;99411.81;;;12.38;64.80
72548;BME280;60570;50.848;6.776;2023-03-25T00:54:10;99411.03;;;12.37;64.54
72548;BME280;60570;50.848;6.776;2023-03-25T00:55:12;99411.81;;;12.38;64.42
72548;BME280;60570;50.848;6.776;2023-03-25T00:56:13;99415.78;;;12.37;64.61
72548;BME280;60570;50.848;6.776;2023-03-25T00:57:14;99424.97;;;12.37;64.11
72548;BME280;60570;50.848;6.776;2023-03-25T00:58:16;99423.34;;;12.36;64.48
72548;BME280;60570;50.848;6.776;2023-03-25T00:59:18;99419.75;;;12.36;64.58
72548;BME280;60570;50.848;6.776;2023-03-25T01:00:19;99418.97;;;12.35;64.54
72548;BME280;60570;50.848;6.776;2023-03-25T01:01:23;99419.75;;;12.36;64.74
72548;BME280;60570;50.848;6.776;2023-03-25T01:02:26;99401.44;;;12.35;64.69
72548;BME280;60570;50.848;6.776;2023-03-25T01:03:27;99411.78;;;12.34;64.60
72548;BME280;60570;50.848;6.776;2023-03-25T01:04:28;99407.00;;;12.35;64.50
72548;BME280;60570;50.848;6.776;2023-03-25T01:05:30;99409.00;;;12.34;64.57
72548;BME280;60570;50.848;6.776;2023-03-25T01:06:33;99400.63;;;12.34;64.46
72548;BME280;60570;50.848;6.776;2023-03-25T01:07:35;99408.19;;;12.34;64.65
72548;BME280;60570;50.848;6.776;2023-03-25T01:08:36;99413.75;;;12.34;64.34
72548;BME280;60570;50.848;6.776;2023-03-25T01:09:38;99401.00;;;12.33;64.62
72548;BME280;60570;50.848;6.776;2023-03-25T01:10:39;99404.97;;;12.32;64.65
72548;BME280;60570;50.848;6.776;2023-03-25T01:11:41;99401.78;;;12.30;64.58
72548;BME280;60570;50.848;6.776;2023-03-25T01:12:43;99407.34;;;12.30;64.46
72548;BME280;60570;50.848;6.776;2023-03-25T01:13:44;99407.34;;;12.30;64.62
72548;BME280;60570;50.848;6.776;2023-03-25T01:14:46;99407.34;;;12.30;64.62
72548;BME280;60570;50.848;6.776;2023-03-25T01:15:47;99401.78;;;12.30;64.56
72548;BME280;60570;50.848;6.776;2023-03-25T01:16:49;99407.69;;;12.28;64.70
72548;BME280;60570;50.848;6.776;2023-03-25T01:17:51;99408.50;;;12.29;64.52
72548;BME280;60570;50.848;6.776;2023-03-25T01:18:53;99409.69;;;12.28;64.65
72548;BME280;60570;50.848;6.776;2023-03-25T01:19:55;99418.06;;;12.28;64.64
72548;BME280;60570;50.848;6.776;2023-03-25T01:20:55;99414.47;;;12.27;64.54
72548;BME280;60570;50.848;6.776;2023-03-25T01:21:57;99405.28;;;12.27;64.58
72548;BME280;60570;50.848;6.776;2023-03-25T01:22:58;99404.47;;;12.26;64.56
72548;BME280;60570;50.848;6.776;2023-03-25T01:23:59;99405.66;;;12.25;64.69
72548;BME280;60570;50.848;6.776;2023-03-25T01:25:00;99411.25;;;12.25;64.49
72548;BME280;60570;50.848;6.776;2023-03-25T01:26:02;99403.69;;;12.26;64.64
72548;BME280;60570;50.848;6.776;2023-03-25T01:27:03;99402.06;;;12.25;64.40
72548;BME280;60570;50.848;6.776;2023-03-25T01:28:05;99401.25;;;12.24;64.54
72548;BME280;60570;50.848;6.776;2023-03-25T01:29:06;99399.28;;;12.25;64.26
72548;BME280;60570;50.848;6.776;2023-03-25T01:30:09;99399.66;;;12.23;64.55
72548;BME280;60570;50.848;6.776;2023-03-25T01:31:11;99394.09;;;12.23;64.71
72548;BME280;60570;50.848;6.776;2023-03-25T01:32:15;99398.84;;;12.23;64.50
72548;BME280;60570;50.848;6.776;2023-03-25T01:33:15;99396.06;;;12.23;64.39
72548;BME280;60570;50.848;6.776;2023-03-25T01:34:17;99390.50;;;12.23;64.51
72548;BME280;60570;50.848;6.776;2023-03-25T01:35:18;99395.25;;;12.22;64.57
72548;BME280;60570;50.848;6.776;2023-03-25T01:36:19;99395.25;;;12.22;64.41
72548;BME280;60570;50.848;6.776;2023-03-25T01:37:20;99395.25;;;12.22;64.51
72548;BME280;60570;50.848;6.776;2023-03-25T01:38:25;99394.47;;;12.22;64.62
72548;BME280;60570;50.848;6.776;2023-03-25T01:39:25;99390.50;;;12.23;64.52
72548;BME280;60570;50.848;6.776;2023-03-25T01:40:27;99390.06;;;12.21;64.58
72548;BME280;60570;50.848;6.776;2023-03-25T01:41:28;99390.88;;;12.21;64.55
72548;BME280;60570;50.848;6.776;2023-03-25T01:42:30;99389.25;;;12.20;64.54
72548;BME280;60570;50.848;6.776;2023-03-25T01:43:32;99387.66;;;12.19;64.61
72548;BME280;60570;50.848;6.776;2023-03-25T01:45:10;99382.09;;;12.19;64.34
72548;BME280;60570;50.848;6.776;2023-03-25T01:46:13;99384.06;;;12.19;64.67
72548;BME280;60570;50.848;6.776;2023-03-25T01:47:16;99383.25;;;12.18;64.83
72548;BME280;60570;50.848;6.776;2023-03-25T01:48:21;99389.66;;;12.19;64.51
72548;BME280;60570;50.848;6.776;2023-03-25T01:49:25;99377.69;;;12.18;64.55
72548;BME280;60570;50.848;6.776;2023-03-25T01:50:29;99381.69;;;12.17;64.38
72548;BME280;60570;50.848;6.776;2023-03-25T01:51:34;99382.47;;;12.18;64.33
72548;BME280;60570;50.848;6.776;2023-03-25T01:52:37;99380.84;;;12.17;64.59
72548;BME280;60570;50.848;6.776;2023-03-25T01:53:38;99376.09;;;12.17;64.35
72548;BME280;60570;50.848;6.776;2023-03-25T01:54:41;99381.25;;;12.15;64.72
72548;BME280;60570;50.848;6.776;2023-03-25T01:55:43;99378.47;;;12.15;64.88
72548;BME280;60570;50.848;6.776;2023-03-25T01:56:48;99375.69;;;12.15;64.73
72548;BME280;60570;50.848;6.776;2023-03-25T01:57:50;99378.47;;;12.15;64.63
72548;BME280;60570;50.848;6.776;2023-03-25T01:58:54;99384.03;;;12.15;64.82
72548;BME280;60570;50.848;6.776;2023-03-25T01:59:56;99380.44;;;12.15;64.54
72548;BME280;60570;50.848;6.776;2023-03-25T02:00:57;99381.25;;;12.15;64.68
72548;BME280;60570;50.848;6.776;2023-03-25T02:02:02;99368.50;;;12.14;64.98
72548;BME280;60570;50.848;6.776;2023-03-25T02:03:06;99384.41;;;12.14;64.78
72548;BME280;60570;50.848;6.776;2023-03-25T02:04:08;99385.22;;;12.14;64.88
72548;BME280;60570;50.848;6.776;2023-03-25T02:05:17;99378.03;;;12.13;64.91
72548;BME280;60570;50.848;6.776;2023-03-25T02:06:21;99384.41;;;12.14;65.01
72548;BME280;60570;50.848;6.776;2023-03-25T02:07:28;99386.38;;;12.13;64.74
72548;BME280;60570;50.848;6.776;2023-03-25T02:08:34;99378.03;;;12.13;64.73
72548;BME280;60570;50.848;6.776;2023-03-25T02:09:38;99381.63;;;12.14;64.89
72548;BME280;60570;50.848;6.776;2023-03-25T02:10:41;99373.66;;;12.12;64.89
72548;BME280;60570;50.848;6.776;2023-03-25T02:11:45;99377.22;;;12.13;64.85
72548;BME280;60570;50.848;6.776;2023-03-25T02:12:46;99365.28;;;12.12;64.92
72548;BME280;60570;50.848;6.776;2023-03-25T02:13:47;99364.88;;;12.10;64.79
72548;BME280;60570;50.848;6.776;2023-03-25T02:14:48;99364.06;;;12.10;65.05
72548;BME280;60570;50.848;6.776;2023-03-25T02:15:53;99374.00;;;12.11;65.02
72548;BME280;60570;50.848;6.776;2023-03-25T02:17:07;99361.28;;;12.10;65.04
72548;BME280;60570;50.848;6.776;2023-03-25T02:18:25;99360.47;;;12.09;65.03
72548;BME280;60570;50.848;6.776;2023-03-25T02:19:46;99368.00;;;12.09;65.30
72548;BME280;60570;50.848;6.776;2023-03-25T02:21:34;99372.41;;;12.10;65.00
72548;BME280;60570;50.848;6.776;2023-03-25T02:23:05;99360.84;;;12.08;65.18
72548;BME280;60570;50.848;6.776;2023-03-25T02:26:24;99380.31;;;12.08;65.10
72548;BME280;60570;50.848;6.776;2023-03-25T02:27:52;99385.09;;;12.07;65.26
72548;BME280;60570;50.848;6.776;2023-03-25T02:29:02;99391.47;;;12.08;65.37
72548;BME280;60570;50.848;6.776;2023-03-25T02:30:33;99393.81;;;12.06;65.49
72548;BME280;60570;50.848;6.776;2023-03-25T02:31:47;99388.25;;;12.06;65.31
72548;BME280;60570;50.848;6.776;2023-03-25T02:33:03;99383.84;;;12.05;65.48
72548;BME280;60570;50.848;6.776;2023-03-25T02:34:39;99381.06;;;12.05;65.33
72548;BME280;60570;50.848;6.776;2023-03-25T02:35:58;99376.69;;;12.04;65.49
72548;BME280;60570;50.848;6.776;2023-03-25T02:37:28;99379.91;;;12.06;65.31
72548;BME280;60570;50.848;6.776;2023-03-25T02:38:37;99380.28;;;12.04;65.60
72548;BME280;60570;50.848;6.776;2023-03-25T02:39:42;99376.69;;;12.04;65.57
72548;BME280;60570;50.848;6.776;2023-03-25T02:40:52;99374.72;;;12.04;65.40
72548;BME280;60570;50.848;6.776;2023-03-25T02:41:57;99379.84;;;12.02;65.64
72548;BME280;60570;50.848;6.776;2023-03-25T02:43:03;99380.63;;;12.03;65.64
72548;BME280;60570;50.848;6.776;2023-03-25T02:44:12;99370.25;;;12.00;65.43
72548;BME280;60570;50.848;6.776;2023-03-25T02:45:19;99372.66;;;12.01;65.65
72548;BME280;60570;50.848;6.776;2023-03-25T02:46:23;99378.22;;;12.01;65.53
72548;BME280;60570;50.848;6.776;2023-03-25T02:47:30;99369.09;;;12.01;65.52
72548;BME280;60570;50.848;6.776;2023-03-25T02:48:36;99372.66;;;12.01;65.45
72548;BME280;60570;50.848;6.776;2023-03-25T02:49:44;99370.25;;;12.00;65.74
72548;BME280;60570;50.848;6.776;2023-03-25T02:50:49;99371.44;;;11.99;65.18
72548;BME280;60570;50.848;6.776;2023-03-25T02:51:55;99372.22;;;11.99;65.54
72548;BME280;60570;50.848;6.776;2023-03-25T02:53:00;99385.78;;;12.01;65.56
72548;BME280;60570;50.848;6.776;2023-03-25T02:54:08;99377.78;;;11.99;65.41
72548;BME280;60570;50.848;6.776;2023-03-25T02:55:13;99382.56;;;11.99;65.47
72548;BME280;60570;50.848;6.776;2023-03-25T02:56:17;99377.00;;;11.99;65.43
72548;BME280;60570;50.848;6.776;2023-03-25T02:57:21;99381.38;;;12.00;65.08
72548;BME280;60570;50.848;6.776;2023-03-25T02:58:24;99379.78;;;11.99;65.55
72548;BME280;60570;50.848;6.776;2023-03-25T02:59:28;99381.38;;;12.00;65.18
72548;BME280;60570;50.848;6.776;2023-03-25T03:00:32;99375.38;;;11.98;65.48
72548;BME280;60570;50.848;6.776;2023-03-25T03:01:34;99381.34;;;11.96;65.11
72548;BME280;60570;50.848;6.776;2023-03-25T03:02:37;99384.13;;;11.96;65.51
72548;BME280;60570;50.848;6.776;2023-03-25T03:03:38;99377.72;;;11.96;65.29
72548;BME280;60570;50.848;6.776;2023-03-25T03:04:47;99389.69;;;11.96;65.15
72548;BME280;60570;50.848;6.776;2023-03-25T03:05:50;99381.72;;;11.95;65.33
72548;BME280;60570;50.848;6.776;2023-03-25T03:06:52;99378.53;;;11.96;65.46
72548;BME280;60570;50.848;6.776;2023-03-25T03:08:06;99378.13;;;11.94;65.36
72548;BME280;60570;50.848;6.776;2023-03-25T03:09:24;99378.94;;;11.95;65.14
72548;BME280;60570;50.848;6.776;2023-03-25T03:10:34;99372.56;;;11.94;65.04
72548;BME280;60570;50.848;6.776;2023-03-25T03:11:47;99365.34;;;11.93;65.37
72548;BME280;60570;50.848;6.776;2023-03-25T03:12:59;99368.16;;;11.93;65.19
72548;BME280;60570;50.848;6.776;2023-03-25T03:14:23;99372.94;;;11.93;64.93
72548;BME280;60570;50.848;6.776;2023-03-25T03:15:36;99370.16;;;11.93;65.01
72548;BME280;60570;50.848;6.776;2023-03-25T03:16:47;99375.72;;;11.93;65.19
72548;BME280;60570;50.848;6.776;2023-03-25T03:18:04;99382.44;;;11.92;65.20
72548;BME280;60570;50.848;6.776;2023-03-25T03:19:19;99370.88;;;11.90;65.39
72548;BME280;60570;50.848;6.776;2023-03-25T03:20:33;99360.13;;;11.88;64.83
72548;BME280;60570;50.848;6.776;2023-03-25T03:21:39;99374.84;;;11.89;65.03
72548;BME280;60570;50.848;6.776;2023-03-25T03:22:46;99371.25;;;11.88;65.29
72548;BME280;60570;50.848;6.776;2023-03-25T03:23:56;99373.22;;;11.88;65.15
72548;BME280;60570;50.848;6.776;2023-03-25T03:25:05;99375.19;;;11.87;65.33
72548;BME280;60570;50.848;6.776;2023-03-25T03:26:15;99374.41;;;11.87;65.27
72548;BME280;60570;50.848;6.776;2023-03-25T03:27:26;99373.59;;;11.86;65.33
72548;BME280;60570;50.848;6.776;2023-03-25T03:28:35;99362.84;;;11.85;65.05
72548;BME280;60570;50.848;6.776;2023-03-25T03:29:44;99365.63;;;11.85;65.27
72548;BME280;60570;50.848;6.776;2023-03-25T03:30:48;99368.78;;;11.83;65.06
72548;BME280;60570;50.848;6.776;2023-03-25T03:31:58;99370.75;;;11.83;65.22
72548;BME280;60570;50.848;6.776;2023-03-25T03:33:03;99376.31;;;11.83;65.10
72548;BME280;60570;50.848;6.776;2023-03-25T03:34:12;99375.91;;;11.81;65.24
72548;BME280;60570;50.848;6.776;2023-03-25T03:35:17;99372.31;;;11.80;65.18
72548;BME280;60570;50.848;6.776;2023-03-25T03:36:24;99369.53;;;11.80;65.32
72548;BME280;60570;50.848;6.776;2023-03-25T03:37:29;99373.13;;;11.81;65.47
72548;BME280;60570;50.848;6.776;2023-03-25T03:38:34;99372.31;;;11.80;65.10
72548;BME280;60570;50.848;6.776;2023-03-25T03:39:39;99373.50;;;11.79;65.51
72548;BME280;60570;50.848;6.776;2023-03-25T03:40:47;99374.28;;;11.80;65.28
72548;BME280;60570;50.848;6.776;2023-03-25T03:41:53;99382.63;;;11.80;64.99
72548;BME280;60570;50.848;6.776;2023-03-25T03:42:57;99381.84;;;11.79;65.07
72548;BME280;60570;50.848;6.776;2023-03-25T03:44:03;99374.66;;;11.78;65.30
72548;BME280;60570;50.848;6.776;2023-03-25T03:45:11;99377.00;;;11.76;65.42
72548;BME280;60570;50.848;6.776;2023-03-25T03:46:15;99375.03;;;11.77;65.09
72548;BME280;60570;50.848;6.776;2023-03-25T03:47:21;99376.19;;;11.76;65.29
72548;BME280;60570;50.848;6.776;2023-03-25T03:48:25;99384.53;;;11.76;65.21
72548;BME280;60570;50.848;6.776;2023-03-25T03:49:33;99378.97;;;11.76;65.34
72548;BME280;60570;50.848;6.776;2023-03-25T03:50:41;99373.78;;;11.74;65.28
72548;BME280;60570;50.848;6.776;2023-03-25T03:51:46;99374.59;;;11.75;65.43
72548;BME280;60570;50.848;6.776;2023-03-25T03:52:52;99379.34;;;11.74;65.35
72548;BME280;60570;50.848;6.776;2023-03-25T03:53:58;99378.53;;;11.73;65.16
72548;BME280;60570;50.848;6.776;2023-03-25T03:55:03;99378.53;;;11.73;65.20
72548;BME280;60570;50.848;6.776;2023-03-25T03:56:14;99391.66;;;11.73;65.25
72548;BME280;60570;50.848;6.776;2023-03-25T03:57:21;99384.47;;;11.72;64.97
72548;BME280;60570;50.848;6.776;2023-03-25T03:58:28;99383.69;;;11.72;65.19
72548;BME280;60570;50.848;6.776;2023-03-25T03:59:37;99390.41;;;11.70;65.14
72548;BME280;60570;50.848;6.776;2023-03-25T04:00:43;99392.38;;;11.70;65.26
72548;BME280;60570;50.848;6.776;2023-03-25T04:01:50;99399.56;;;11.71;65.49
72548;BME280;60570;50.848;6.776;2023-03-25T04:02:58;99396.78;;;11.71;65.37
72548;BME280;60570;50.848;6.776;2023-03-25T04:04:05;99393.19;;;11.70;65.30
72548;BME280;60570;50.848;6.776;2023-03-25T04:05:08;99395.53;;;11.68;65.28
72548;BME280;60570;50.848;6.776;2023-03-25T04:06:16;99399.16;;;11.69;65.18
72548;BME280;60570;50.848;6.776;2023-03-25T04:07:23;99388.00;;;11.69;65.19
72548;BME280;60570;50.848;6.776;2023-03-25T04:08:30;99392.38;;;11.70;65.06
72548;BME280;60570;50.848;6.776;2023-03-25T04:09:34;99386.03;;;11.69;65.02
72548;BME280;60570;50.848;6.776;2023-03-25T04:10:44;99389.16;;;11.68;65.13
72548;BME280;60570;50.848;6.776;2023-03-25T04:11:55;99393.94;;;11.67;65.20
72548;BME280;60570;50.848;6.776;2023-03-25T04:13:01;99403.09;;;11.68;65.20
72548;BME280;60570;50.848;6.776;2023-03-25T04:14:04;99389.97;;;11.68;64.97
72548;BME280;60570;50.848;6.776;2023-03-25T04:15:07;99392.34;;;11.66;65.21
72548;BME280;60570;50.848;6.776;2023-03-25T04:16:08;99397.91;;;11.66;65.24
72548;BME280;60570;50.848;6.776;2023-03-25T04:17:10;99392.69;;;11.65;64.79
72548;BME280;60570;50.848;6.776;2023-03-25T04:18:11;99397.91;;;11.66;64.98
72548;BME280;60570;50.848;6.776;2023-03-25T04:19:13;99391.53;;;11.66;65.11
72548;BME280;60570;50.848;6.776;2023-03-25T04:20:21;99399.09;;;11.65;64.92
72548;BME280;60570;50.848;6.776;2023-03-25T04:21:24;99394.66;;;11.64;65.25
72548;BME280;60570;50.848;6.776;2023-03-25T04:22:25;99398.63;;;11.63;65.04
72548;BME280;60570;50.848;6.776;2023-03-25T04:23:26;99401.03;;;11.65;65.15
72548;BME280;60570;50.848;6.776;2023-03-25T04:24:29;99395.84;;;11.63;65.16
72548;BME280;60570;50.848;6.776;2023-03-25T04:25:31;99398.63;;;11.63;65.12
72548;BME280;60570;50.848;6.776;2023-03-25T04:26:33;99396.63;;;11.64;65.06
72548;BME280;60570;50.848;6.776;2023-03-25T04:27:38;99393.06;;;11.63;65.23
72548;BME280;60570;50.848;6.776;2023-03-25T04:28:39;99395.84;;;11.63;64.93
72548;BME280;60570;50.848;6.776;2023-03-25T04:29:43;99393.84;;;11.64;65.15
72548;BME280;60570;50.848;6.776;2023-03-25T04:30:45;99387.50;;;11.63;65.04
72548;BME280;60570;50.848;6.776;2023-03-25T04:31:47;99398.19;;;11.61;64.97
72548;BME280;60570;50.848;6.776;2023-03-25T04:32:49;99401.75;;;11.62;65.03
72548;BME280;60570;50.848;6.776;2023-03-25T04:33:51;99386.25;;;11.61;65.04
72548;BME280;60570;50.848;6.776;2023-03-25T04:34:52;99394.59;;;11.61;65.16
72548;BME280;60570;50.848;6.776;2023-03-25T04:35:57;99391.00;;;11.60;64.99
72548;BME280;60570;50.848;6.776;2023-03-25T04:37:01;99397.38;;;11.61;65.05
72548;BME280;60570;50.848;6.776;2023-03-25T04:38:02;99392.97;;;11.60;64.97
72548;BME280;60570;50.848;6.776;2023-03-25T04:39:04;99397.38;;;11.61;64.98
72548;BME280;60570;50.848;6.776;2023-03-25T04:40:06;99394.59;;;11.61;65.11
72548;BME280;60570;50.848;6.776;2023-03-25T04:41:09;99396.56;;;11.60;65.06
72548;BME280;60570;50.848;6.776;2023-03-25T04:42:11;99404.09;;;11.60;65.22
72548;BME280;60570;50.848;6.776;2023-03-25T04:43:15;99406.88;;;11.60;64.87
72548;BME280;60570;50.848;6.776;2023-03-25T04:44:17;99400.53;;;11.59;65.03
72548;BME280;60570;50.848;6.776;2023-03-25T04:45:18;99392.19;;;11.59;65.13
72548;BME280;60570;50.848;6.776;2023-03-25T04:46:20;99392.19;;;11.59;64.96
72548;BME280;60570;50.848;6.776;2023-03-25T04:47:23;99390.56;;;11.58;65.09
72548;BME280;60570;50.848;6.776;2023-03-25T04:48:26;99394.53;;;11.57;64.87
72548;BME280;60570;50.848;6.776;2023-03-25T04:49:29;99388.16;;;11.57;65.00
72548;BME280;60570;50.848;6.776;2023-03-25T04:50:30;99390.94;;;11.57;64.73
72548;BME280;60570;50.848;6.776;2023-03-25T04:51:31;99394.16;;;11.59;64.93
72548;BME280;60570;50.848;6.776;2023-03-25T04:52:33;99385.38;;;11.57;64.92
72548;BME280;60570;50.848;6.776;2023-03-25T04:53:37;99388.16;;;11.57;65.18
72548;BME280;60570;50.848;6.776;2023-03-25T04:54:39;99388.53;;;11.55;64.92
72548;BME280;60570;50.848;6.776;2023-03-25T04:55:40;99388.53;;;11.55;65.07
72548;BME280;60570;50.848;6.776;2023-03-25T04:56:47;99389.34;;;11.56;65.00
72548;BME280;60570;50.848;6.776;2023-03-25T04:57:50;99378.56;;;11.54;64.85
72548;BME280;60570;50.848;6.776;2023-03-25T04:58:54;99380.56;;;11.54;64.83
72548;BME280;60570;50.848;6.776;2023-03-25T04:59:54;99389.69;;;11.54;65.10
72548;BME280;60570;50.848;6.776;2023-03-25T05:00:57;99385.31;;;11.53;64.77
72548;BME280;60570;50.848;6.776;2023-03-25T05:02:05;99389.69;;;11.54;64.99
72548;BME280;60570;50.848;6.776;2023-03-25T05:03:12;99389.69;;;11.54;65.19
72548;BME280;60570;50.848;6.776;2023-03-25T05:04:16;99379.75;;;11.53;64.97
72548;BME280;60570;50.848;6.776;2023-03-25T05:05:19;99381.72;;;11.53;64.91
72548;BME280;60570;50.848;6.776;2023-03-25T05:06:20;99376.97;;;11.53;64.64
72548;BME280;60570;50.848;6.776;2023-03-25T05:07:21;99380.91;;;11.52;64.88
72548;BME280;60570;50.848;6.776;2023-03-25T05:08:22;99381.72;;;11.53;64.90
72548;BME280;60570;50.848;6.776;2023-03-25T05:09:24;99385.69;;;11.52;64.76
72548;BME280;60570;50.848;6.776;2023-03-25T05:10:26;99382.47;;;11.50;64.74
72548;BME280;60570;50.848;6.776;2023-03-25T05:11:28;99386.03;;;11.50;64.99
72548;BME280;60570;50.848;6.776;2023-03-25T05:12:30;99384.06;;;11.51;64.80
72548;BME280;60570;50.848;6.776;2023-03-25T05:13:31;99379.69;;;11.50;64.59
72548;BME280;60570;50.848;6.776;2023-03-25T05:14:34;99376.91;;;11.50;64.90
72548;BME280;60570;50.848;6.776;2023-03-25T05:15:35;99381.66;;;11.49;64.69
72548;BME280;60570;50.848;6.776;2023-03-25T05:16:39;99380.84;;;11.49;64.76
72548;BME280;60570;50.848;6.776;2023-03-25T05:17:40;99381.66;;;11.49;64.69
72548;BME280;60570;50.848;6.776;2023-03-25T05:18:43;99380.84;;;11.49;64.85
72548;BME280;60570;50.848;6.776;2023-03-25T05:19:43;99382.81;;;11.48;64.69
72548;BME280;60570;50.848;6.776;2023-03-25T05:20:45;99391.53;;;11.47;64.78
72548;BME280;60570;50.848;6.776;2023-03-25T05:21:50;99384.00;;;11.47;64.75
72548;BME280;60570;50.848;6.776;2023-03-25T05:22:51;99387.59;;;11.48;64.76
72548;BME280;60570;50.848;6.776;2023-03-25T05:23:53;99395.13;;;11.47;64.77
72548;BME280;60570;50.848;6.776;2023-03-25T05:24:54;99398.28;;;11.46;64.74
72548;BME280;60570;50.848;6.776;2023-03-25T05:25:55;99395.50;;;11.46;64.89
72548;BME280;60570;50.848;6.776;2023-03-25T05:26:57;99399.06;;;11.46;64.85
72548;BME280;60570;50.848;6.776;2023-03-25T05:28:01;99389.94;;;11.46;64.85
72548;BME280;60570;50.848;6.776;2023-03-25T05:29:11;99394.69;;;11.45;64.95
72548;BME280;60570;50.848;6.776;2023-03-25T05:30:15;99391.91;;;11.45;64.64
72548;BME280;60570;50.848;6.776;2023-03-25T05:31:16;99401.06;;;11.46;64.54
72548;BME280;60570;50.848;6.776;2023-03-25T05:32:17;99392.72;;;11.46;64.64
72548;BME280;60570;50.848;6.776;2023-03-25T05:33:19;99395.84;;;11.44;64.78
72548;BME280;60570;50.848;6.776;2023-03-25T05:34:20;99393.06;;;11.44;64.81
72548;BME280;60570;50.848;6.776;2023-03-25T05:35:21;99391.47;;;11.43;64.84
72548;BME280;60570;50.848;6.776;2023-03-25T05:36:22;99383.13;;;11.43;64.90
72548;BME280;60570;50.848;6.776;2023-03-25T05:37:25;99377.56;;;11.43;64.87
72548;BME280;60570;50.848;6.776;2023-03-25T05:38:26;99385.09;;;11.43;64.59
72548;BME280;60570;50.848;6.776;2023-03-25T05:39:27;99385.09;;;11.43;64.83
72548;BME280;60570;50.848;6.776;2023-03-25T05:40:28;99384.31;;;11.42;64.63
72548;BME280;60570;50.848;6.776;2023-03-25T05:41:30;99380.72;;;11.42;64.81
72548;BME280;60570;50.848;6.776;2023-03-25T05:42:32;99375.97;;;11.42;64.85
72548;BME280;60570;50.848;6.776;2023-03-25T05:43:34;99379.91;;;11.41;64.79
72548;BME280;60570;50.848;6.776;2023-03-25T05:44:35;99377.13;;;11.41;64.79